createdAt,value
2022-08-03T00:00:44.604Z,15.78
2022-08-03T00:03:14.186Z,15.79
2022-08-03T00:06:04.763Z,15.81
2022-08-03T00:08:33.060Z,15.82
2022-08-03T00:11:09.539Z,15.85
2022-08-03T00:13:40.540Z,15.87
2022-08-03T00:16:10.708Z,15.88
2022-08-03T00:18:40.592Z,15.88
2022-08-03T00:21:10.153Z,15.90
2022-08-03T00:23:51.682Z,15.89
2022-08-03T00:26:22.633Z,15.88
2022-08-03T00:28:53.410Z,15.88
2022-08-03T00:31:27.765Z,15.87
2022-08-03T00:34:12.459Z,15.86
2022-08-03T00:36:42.314Z,15.88
2022-08-03T00:39:11.704Z,15.84
2022-08-03T00:41:40.969Z,15.83
2022-08-03T00:44:11.886Z,15.81
2022-08-03T00:46:41.200Z,15.79
2022-08-03T00:49:10.573Z,15.77
2022-08-03T00:51:40.138Z,15.77
2022-08-03T00:54:09.420Z,15.79
2022-08-03T00:56:39.697Z,15.79
2022-08-03T00:59:32.409Z,15.80
2022-08-03T01:02:01.704Z,15.81
2022-08-03T01:04:31.248Z,15.82
2022-08-03T01:07:10.977Z,15.85
2022-08-03T01:09:46.575Z,15.85
2022-08-03T01:12:23.587Z,15.85
2022-08-03T01:15:01.490Z,15.88
2022-08-03T01:17:37.140Z,15.85
2022-08-03T01:20:10.636Z,15.86
2022-08-03T01:22:56.685Z,15.86
2022-08-03T01:25:36.435Z,15.88
2022-08-03T01:28:24.374Z,15.88
2022-08-03T01:30:59.840Z,15.89
2022-08-03T01:33:35.154Z,15.92
2022-08-03T01:36:06.902Z,15.93
2022-08-03T01:38:39.582Z,15.95
2022-08-03T01:41:14.955Z,15.96
2022-08-03T01:43:59.078Z,15.97
2022-08-03T01:46:47.750Z,15.99
2022-08-03T01:49:19.277Z,16.02
2022-08-03T01:52:00.830Z,16.03
2022-08-03T01:54:36.836Z,16.06
2022-08-03T01:57:07.831Z,16.07
2022-08-03T01:59:38.668Z,16.05
2022-08-03T02:02:28.055Z,16.01
2022-08-03T02:05:10.600Z,15.98
2022-08-03T02:07:43.210Z,16.01
2022-08-03T02:10:16.131Z,15.98
2022-08-03T02:13:06.394Z,15.97
2022-08-03T02:15:37.224Z,15.98
2022-08-03T02:18:10.494Z,15.98
2022-08-03T02:20:40.995Z,16.01
2022-08-03T02:23:11.029Z,16.01
2022-08-03T02:25:47.838Z,16.02
2022-08-03T02:28:22.200Z,16.04
2022-08-03T02:30:55.969Z,16.04
2022-08-03T02:33:31.651Z,16.05
2022-08-03T02:36:03.504Z,16.05
2022-08-03T02:38:37.208Z,16.06
2022-08-03T02:41:13.925Z,16.08
2022-08-03T02:44:06.345Z,16.11
2022-08-03T02:46:38.492Z,16.09
2022-08-03T02:49:41.205Z,16.10
2022-08-03T02:52:02.325Z,16.10
2022-08-03T02:54:33.902Z,16.12
2022-08-03T02:57:04.389Z,16.14
2022-08-03T02:59:35.271Z,16.13
2022-08-03T03:02:05.562Z,16.15
2022-08-03T03:04:37.932Z,16.15
2022-08-03T03:07:15.591Z,16.16
2022-08-03T03:09:46.176Z,16.17
2022-08-03T03:12:17.095Z,16.19
2022-08-03T03:14:46.782Z,16.16
2022-08-03T03:17:18.646Z,16.18
2022-08-03T03:19:52.830Z,16.17
2022-08-03T03:22:23.165Z,16.17
2022-08-03T03:24:54.714Z,16.20
2022-08-03T03:27:24.347Z,16.21
2022-08-03T03:29:54.309Z,16.24
2022-08-03T03:32:23.669Z,16.25
2022-08-03T03:34:55.349Z,16.27
2022-08-03T03:37:24.879Z,16.29
2022-08-03T03:39:55.544Z,16.31
2022-08-03T03:42:26.126Z,16.32
2022-08-03T03:44:55.806Z,16.34
2022-08-03T03:47:32.937Z,16.34
2022-08-03T03:50:05.013Z,16.37
2022-08-03T03:52:34.962Z,16.38
2022-08-03T03:55:04.359Z,16.38
2022-08-03T03:57:35.213Z,16.38
2022-08-03T04:00:06.157Z,16.40
2022-08-03T04:02:35.866Z,16.40
2022-08-03T04:05:25.069Z,16.42
2022-08-03T04:08:17.454Z,16.44
2022-08-03T04:11:00.411Z,16.46
2022-08-03T04:13:39.808Z,16.48
2022-08-03T04:16:11.935Z,16.47
2022-08-03T04:18:43.443Z,16.48
2022-08-03T04:21:16.437Z,16.49
2022-08-03T04:23:50.041Z,16.52
2022-08-03T04:26:22.597Z,16.52
2022-08-03T04:28:53.380Z,16.55
2022-08-03T04:31:24.238Z,16.56
2022-08-03T04:33:54.690Z,16.57
2022-08-03T04:36:28.128Z,16.60
2022-08-03T04:39:05.017Z,16.64
2022-08-03T04:42:07.284Z,16.67
2022-08-03T04:44:28.830Z,16.68
2022-08-03T04:46:59.185Z,16.71
2022-08-03T04:49:30.440Z,16.76
2022-08-03T04:52:01.442Z,16.79
2022-08-03T04:54:31.094Z,16.79
2022-08-03T04:57:00.339Z,16.80
2022-08-03T04:59:31.719Z,16.85
2022-08-03T05:02:01.363Z,16.86
2022-08-03T05:04:30.897Z,16.86
2022-08-03T05:07:12.401Z,16.88
2022-08-03T05:09:49.777Z,16.92
2022-08-03T05:12:21.841Z,16.94
2022-08-03T05:14:51.375Z,16.96
2022-08-03T05:17:20.699Z,16.99
2022-08-03T05:19:49.949Z,17.02
2022-08-03T05:22:21.105Z,17.05
2022-08-03T05:24:50.667Z,17.11
2022-08-03T05:27:20.310Z,17.15
2022-08-03T05:29:51.289Z,17.19
2022-08-03T05:32:20.658Z,17.24
2022-08-03T05:34:50.252Z,17.30
2022-08-03T05:37:21.009Z,17.32
2022-08-03T05:39:50.240Z,17.38
2022-08-03T05:42:19.786Z,17.42
2022-08-03T05:44:49.082Z,17.44
2022-08-03T05:47:18.501Z,17.47
2022-08-03T05:49:47.986Z,17.51
2022-08-03T05:52:18.054Z,17.55
2022-08-03T05:54:56.077Z,17.57
2022-08-03T05:57:34.010Z,17.62
2022-08-03T06:00:05.275Z,17.67
2022-08-03T06:02:41.216Z,17.70
2022-08-03T06:05:11.451Z,17.75
2022-08-03T06:07:40.721Z,17.80
2022-08-03T06:10:36.157Z,17.83
2022-08-03T06:13:01.462Z,17.89
2022-08-03T06:15:33.344Z,17.96
2022-08-03T06:18:02.634Z,18.04
2022-08-03T06:20:32.372Z,18.10
2022-08-03T06:23:02.829Z,18.15
2022-08-03T06:25:33.808Z,18.24
2022-08-03T06:28:05.119Z,18.29
2022-08-03T06:30:34.785Z,18.37
2022-08-03T06:33:04.483Z,18.45
2022-08-03T06:35:37.817Z,18.51
2022-08-03T06:38:10.807Z,18.57
2022-08-03T06:40:42.059Z,18.68
2022-08-03T07:03:52.597Z,19.66
2022-08-03T07:06:22.879Z,19.68
2022-08-03T07:08:55.445Z,19.75
2022-08-03T07:11:28.614Z,19.79
2022-08-03T07:13:57.919Z,19.87
2022-08-03T07:16:27.422Z,19.93
2022-08-03T07:18:58.121Z,20.02
2022-08-03T07:21:27.360Z,20.12
2022-08-03T07:23:56.877Z,20.22
2022-08-03T07:26:26.214Z,20.33
2022-08-03T07:28:55.582Z,20.43
2022-08-03T07:31:25.078Z,20.51
2022-08-03T07:33:54.424Z,20.60
2022-08-03T07:36:26.931Z,20.64
2022-08-03T07:38:58.170Z,20.67
2022-08-03T07:41:27.581Z,20.71
2022-08-03T07:43:56.974Z,20.76
2022-08-03T07:46:26.795Z,20.83
2022-08-03T07:48:56.170Z,20.95
2022-08-03T07:51:26.976Z,20.96
2022-08-03T07:53:57.753Z,21.03
2022-08-03T07:56:27.130Z,21.17
2022-08-03T07:58:56.824Z,21.21
2022-08-03T08:01:26.644Z,21.32
2022-08-03T08:03:56.145Z,21.39
2022-08-03T08:06:26.793Z,21.41
2022-08-03T08:08:59.586Z,21.54
2022-08-03T08:11:30.934Z,21.70
2022-08-03T08:14:02.786Z,21.84
2022-08-03T08:16:32.419Z,22.02
2022-08-03T08:19:02.647Z,22.09
2022-08-03T08:21:53.505Z,22.07
2022-08-03T08:24:22.714Z,22.12
2022-08-03T08:26:52.791Z,22.30
2022-08-03T08:29:23.349Z,22.43
2022-08-03T08:31:52.813Z,22.53
2022-08-03T08:34:22.153Z,22.60
2022-08-03T08:36:52.836Z,22.65
2022-08-03T08:39:22.340Z,22.67
2022-08-03T08:41:53.475Z,22.68
2022-08-03T08:44:22.961Z,22.77
2022-08-03T08:46:54.900Z,22.85
2022-08-03T08:49:28.993Z,22.93
2022-08-03T08:52:01.703Z,22.97
2022-08-03T08:54:33.307Z,23.11
2022-08-03T08:57:16.457Z,23.33
2022-08-03T08:59:57.328Z,23.58
2022-08-03T09:02:27.350Z,23.72
2022-08-03T09:04:57.451Z,23.83
2022-08-03T09:07:29.227Z,24.03
2022-08-03T09:10:10.010Z,24.23
2022-08-03T09:12:43.868Z,24.41
2022-08-03T09:15:21.606Z,24.57
2022-08-03T09:17:52.018Z,24.75
2022-08-03T09:20:22.873Z,24.91
2022-08-03T09:22:59.042Z,25.01
2022-08-03T09:25:35.005Z,25.07
2022-08-03T09:28:10.335Z,25.17
2022-08-03T09:30:41.670Z,25.28
2022-08-03T09:33:13.123Z,25.36
2022-08-03T09:35:59.029Z,25.42
2022-08-03T09:38:30.059Z,25.53
2022-08-03T09:41:00.768Z,25.61
2022-08-03T09:43:46.822Z,25.71
2022-08-03T09:46:16.436Z,25.80
2022-08-03T09:48:46.136Z,25.87
2022-08-03T09:51:33.323Z,25.90
2022-08-03T09:54:15.098Z,26.03
2022-08-03T09:56:48.628Z,26.08
2022-08-03T09:59:26.548Z,26.12
2022-08-03T10:01:57.501Z,26.22
2022-08-03T10:04:27.671Z,26.25
2022-08-03T10:07:08.413Z,26.33
2022-08-03T10:09:39.909Z,26.41
2022-08-03T10:12:13.573Z,26.50
2022-08-03T10:14:45.707Z,26.60
2022-08-03T10:17:15.490Z,26.67
2022-08-03T10:19:46.590Z,26.74
2022-08-03T10:22:17.395Z,26.80
2022-08-03T10:24:54.847Z,26.80
2022-08-03T10:27:25.511Z,26.80
2022-08-03T10:29:57.059Z,26.89
2022-08-03T10:32:31.712Z,26.94
2022-08-03T10:35:20.285Z,27.04
2022-08-03T10:37:57.447Z,27.05
2022-08-03T10:40:48.228Z,27.08
2022-08-03T10:43:23.548Z,27.20
2022-08-03T10:45:53.433Z,27.32
2022-08-03T10:48:23.609Z,27.36
2022-08-03T10:50:53.335Z,27.44
2022-08-03T10:53:37.574Z,27.52
2022-08-03T10:56:49.906Z,27.58
2022-08-03T10:59:27.908Z,27.60
2022-08-03T11:02:00.724Z,27.57
2022-08-03T11:04:31.030Z,27.60
2022-08-03T11:07:23.277Z,27.65
2022-08-03T11:09:54.734Z,27.69
2022-08-03T11:12:30.176Z,27.69
2022-08-03T11:15:03.467Z,27.70
2022-08-03T11:17:33.784Z,27.67
2022-08-03T11:20:16.598Z,27.71
2022-08-03T11:22:54.491Z,27.76
2022-08-03T11:25:53.915Z,27.85
2022-08-03T11:28:30.629Z,27.95
2022-08-03T11:31:49.934Z,28.02
2022-08-03T11:34:20.099Z,28.07
2022-08-03T11:37:23.305Z,28.18
2022-08-03T11:39:57.258Z,28.21
2022-08-03T11:42:49.157Z,28.27
2022-08-03T11:45:19.961Z,28.24
2022-08-03T11:47:54.081Z,28.27
2022-08-03T11:50:24.448Z,28.36
2022-08-03T11:52:54.003Z,28.43
2022-08-03T11:55:25.035Z,28.50
2022-08-03T11:59:16.631Z,28.53
2022-08-03T12:00:52.567Z,28.54
2022-08-03T12:03:22.548Z,28.61
2022-08-03T12:05:53.175Z,28.64
2022-08-03T12:08:37.449Z,28.75
2022-08-03T12:11:08.714Z,28.81
2022-08-03T12:14:44.068Z,28.83
2022-08-03T12:16:33.576Z,28.77
2022-08-03T12:19:05.005Z,28.75
2022-08-03T12:21:35.428Z,28.83
2022-08-03T12:24:06.823Z,28.92
2022-08-03T12:26:58.535Z,28.97
2022-08-03T12:29:29.609Z,28.98
2022-08-03T12:32:00.419Z,29.05
2022-08-03T12:34:48.211Z,29.07
2022-08-03T12:37:22.440Z,29.12
2022-08-03T12:40:01.346Z,29.09
2022-08-03T12:42:35.077Z,28.99
2022-08-03T12:45:19.926Z,28.86
2022-08-03T12:47:55.185Z,28.81
2022-08-03T12:50:27.525Z,28.82
2022-08-03T12:52:57.764Z,28.84
2022-08-03T12:55:57.210Z,28.92
2022-08-03T12:58:34.560Z,29.04
2022-08-03T13:01:10.102Z,29.02
2022-08-03T13:03:49.784Z,29.13
2022-08-03T13:06:22.650Z,29.14
2022-08-03T13:09:02.705Z,29.17
2022-08-03T13:12:01.852Z,29.23
2022-08-03T13:14:21.514Z,29.31
2022-08-03T13:16:51.024Z,29.34
2022-08-03T13:19:21.724Z,29.40
2022-08-03T13:21:53.906Z,29.42
2022-08-03T13:24:34.657Z,29.41
2022-08-03T13:28:02.422Z,29.45
2022-08-03T13:29:54.842Z,29.42
2022-08-03T13:32:25.028Z,29.38
2022-08-03T13:34:55.717Z,29.40
2022-08-03T13:37:25.642Z,29.46
2022-08-03T13:39:59.604Z,29.52
2022-08-03T13:42:32.064Z,29.59
2022-08-03T13:45:02.427Z,29.60
2022-08-03T13:47:32.016Z,29.44
2022-08-03T13:50:03.364Z,29.50
2022-08-03T13:52:35.168Z,29.43
2022-08-03T13:55:05.691Z,29.32
2022-08-03T13:58:05.418Z,29.31
2022-08-03T14:00:28.394Z,29.33
2022-08-03T14:03:16.123Z,29.40
2022-08-03T14:05:47.713Z,29.42
2022-08-03T14:08:18.244Z,29.48
2022-08-03T14:10:47.887Z,29.41
2022-08-03T14:13:18.202Z,29.36
2022-08-03T14:15:50.129Z,29.39
2022-08-03T14:18:29.093Z,29.46
2022-08-03T14:21:07.193Z,29.52
2022-08-03T14:23:38.609Z,29.54
2022-08-03T14:26:09.391Z,29.60
2022-08-03T14:28:38.844Z,29.63
2022-08-03T14:32:09.127Z,29.70
2022-08-03T14:33:58.130Z,29.71
2022-08-03T14:36:42.307Z,29.76
2022-08-03T14:39:11.757Z,29.77
2022-08-03T14:41:41.484Z,29.77
2022-08-03T14:44:10.684Z,29.75
2022-08-03T14:46:40.047Z,29.73
2022-08-03T14:50:37.431Z,29.63
2022-08-03T14:52:00.643Z,29.75
2022-08-03T14:54:31.466Z,29.79
2022-08-03T14:57:00.981Z,29.82
2022-08-03T14:59:56.400Z,29.87
2022-08-03T15:02:23.775Z,29.90
2022-08-03T15:04:53.938Z,29.96
2022-08-03T15:07:24.812Z,29.98
2022-08-03T15:09:54.314Z,30.01
2022-08-03T15:12:23.581Z,30.07
2022-08-03T15:14:53.015Z,30.14
2022-08-03T15:17:22.334Z,30.10
2022-08-03T15:20:00.426Z,30.09
2022-08-03T15:22:39.978Z,30.10
2022-08-03T15:26:02.348Z,30.16
2022-08-03T15:28:03.616Z,30.17
2022-08-03T15:30:36.869Z,30.23
2022-08-03T15:33:06.660Z,30.26
2022-08-03T15:35:35.715Z,30.23
2022-08-03T15:38:09.458Z,30.24
2022-08-03T15:40:39.689Z,30.27
2022-08-03T15:43:08.715Z,30.20
2022-08-03T15:45:38.280Z,30.27
2022-08-03T15:48:07.841Z,30.37
2022-08-03T15:50:37.314Z,30.43
2022-08-03T15:53:07.708Z,30.46
2022-08-03T15:55:37.166Z,30.55
2022-08-03T15:59:04.294Z,30.59
2022-08-03T16:00:56.925Z,30.63
2022-08-03T16:03:28.373Z,30.64
2022-08-03T16:05:57.842Z,30.70
2022-08-03T16:08:28.544Z,30.76
2022-08-03T16:10:58.342Z,30.77
2022-08-03T16:14:04.797Z,30.79
2022-08-03T16:16:18.648Z,30.91
2022-08-03T16:18:48.184Z,30.99
2022-08-03T16:21:19.432Z,31.00
2022-08-03T16:23:52.288Z,31.07
2022-08-03T16:26:21.563Z,31.03
2022-08-03T16:28:50.832Z,30.96
2022-08-03T16:31:20.297Z,30.93
2022-08-03T16:33:49.365Z,30.84
2022-08-03T16:36:18.907Z,30.80
2022-08-03T16:38:49.689Z,30.74
2022-08-03T16:41:19.029Z,30.65
2022-08-03T16:43:48.345Z,30.57
2022-08-03T16:46:17.646Z,30.49
2022-08-03T16:48:46.949Z,30.49
2022-08-03T16:51:16.203Z,30.42
2022-08-03T16:54:05.345Z,30.36
2022-08-03T16:56:36.419Z,30.20
2022-08-03T16:59:06.574Z,30.08
2022-08-03T17:01:37.863Z,30.04
2022-08-03T17:04:07.487Z,29.92
2022-08-03T17:06:44.961Z,29.84
2022-08-03T17:09:18.183Z,29.68
2022-08-03T17:11:52.027Z,29.59
2022-08-03T17:14:23.866Z,29.43
2022-08-03T17:17:02.073Z,29.36
2022-08-03T17:19:36.671Z,29.27
2022-08-03T17:22:12.038Z,29.18
2022-08-03T17:24:45.433Z,29.09
2022-08-03T17:28:48.490Z,29.04
2022-08-03T17:30:14.904Z,28.94
2022-08-03T17:32:56.699Z,28.85
2022-08-03T17:35:36.514Z,28.73
2022-08-03T17:38:11.921Z,28.63
2022-08-03T17:40:50.150Z,28.54
2022-08-03T18:02:37.060Z,28.24
2022-08-03T18:05:16.857Z,28.04
2022-08-03T18:08:02.502Z,27.89
2022-08-03T18:10:49.519Z,27.76
2022-08-03T18:13:24.745Z,27.64
2022-08-03T18:16:00.356Z,27.54
2022-08-03T18:18:39.108Z,27.43
2022-08-03T18:21:16.866Z,27.34
2022-08-03T18:23:50.123Z,27.24
2022-08-03T18:26:21.532Z,27.12
2022-08-03T18:28:54.382Z,26.98
2022-08-03T18:32:00.436Z,26.85
2022-08-03T18:34:33.435Z,26.66
2022-08-03T18:37:07.642Z,26.46
2022-08-03T18:39:49.838Z,26.34
2022-08-03T18:42:25.910Z,26.18
2022-08-03T18:44:57.028Z,26.06
2022-08-03T18:47:52.059Z,25.96
2022-08-03T18:50:30.727Z,25.82
2022-08-03T18:53:15.558Z,25.68
2022-08-03T18:56:02.119Z,25.54
2022-08-03T18:58:39.593Z,25.46
2022-08-03T19:01:58.575Z,25.41
2022-08-03T19:04:13.459Z,25.33
2022-08-03T19:06:48.692Z,25.30
2022-08-03T19:09:29.031Z,25.26
2022-08-03T19:12:26.180Z,25.21
2022-08-03T19:14:56.278Z,25.13
2022-08-03T19:17:29.745Z,25.04
2022-08-03T19:20:01.592Z,24.96
2022-08-03T19:22:33.752Z,24.83
2022-08-03T19:25:04.216Z,24.72
2022-08-03T19:27:35.200Z,24.61
2022-08-03T19:30:21.789Z,24.51
2022-08-03T19:32:56.256Z,24.44
2022-08-03T19:35:51.918Z,24.39
2022-08-03T19:38:29.114Z,24.32
2022-08-03T19:41:02.281Z,24.24
2022-08-03T19:43:52.994Z,24.17
2022-08-03T19:46:30.973Z,24.05
2022-08-03T19:49:04.191Z,23.92
2022-08-03T19:52:02.512Z,23.80
2022-08-03T19:54:29.719Z,23.72
2022-08-03T19:57:04.793Z,23.60
2022-08-03T19:59:42.028Z,23.54
2022-08-03T20:02:26.459Z,23.45
2022-08-03T20:05:00.042Z,23.39
2022-08-03T20:07:32.531Z,23.33
2022-08-03T20:10:05.940Z,23.30
2022-08-03T20:12:39.432Z,23.24
2022-08-03T20:15:10.610Z,23.21
2022-08-03T20:17:55.965Z,23.19
2022-08-03T20:20:29.907Z,23.14
2022-08-03T20:23:06.864Z,23.10
2022-08-03T20:25:48.758Z,23.07
2022-08-03T20:28:30.029Z,22.99
2022-08-03T20:30:59.838Z,22.94
2022-08-03T20:33:45.851Z,22.88
2022-08-03T20:36:18.874Z,22.82
2022-08-03T20:38:50.944Z,22.79
2022-08-03T20:41:22.918Z,22.75
2022-08-03T20:43:52.689Z,22.70
2022-08-03T20:46:32.853Z,22.67
2022-08-03T20:49:09.160Z,22.62
2022-08-03T20:51:49.527Z,22.57
2022-08-03T20:54:31.259Z,22.50
2022-08-03T20:57:03.817Z,22.42
2022-08-03T20:59:50.078Z,22.34
2022-08-03T21:02:29.563Z,22.27
2022-08-03T21:05:03.604Z,22.18
2022-08-03T21:08:05.716Z,22.11
2022-08-03T21:10:33.747Z,22.05
2022-08-03T21:13:17.461Z,22.05
2022-08-03T21:16:02.359Z,22.04
2022-08-03T21:18:46.069Z,22.03
2022-08-03T21:21:17.709Z,22.03
2022-08-03T21:23:49.930Z,22.04
2022-08-03T21:26:21.738Z,22.00
2022-08-03T21:28:53.963Z,21.98
2022-08-03T21:31:26.583Z,21.96
2022-08-03T21:33:57.934Z,21.95
2022-08-03T21:36:29.435Z,21.95
2022-08-03T21:38:59.756Z,21.96
2022-08-03T21:41:32.313Z,21.96
2022-08-03T21:44:03.552Z,21.98
2022-08-03T21:46:43.737Z,21.99
2022-08-03T21:50:06.133Z,21.96
2022-08-03T21:52:05.153Z,21.88
2022-08-03T21:54:37.558Z,21.84
2022-08-03T21:57:14.667Z,21.80
2022-08-03T21:59:53.034Z,21.81
2022-08-03T22:02:26.981Z,21.78
2022-08-03T22:04:57.436Z,21.79
2022-08-03T22:07:28.263Z,21.76
2022-08-03T22:09:59.018Z,21.73
2022-08-03T22:12:31.190Z,21.72
2022-08-03T22:15:03.445Z,21.72
2022-08-03T22:17:55.708Z,21.70
2022-08-03T22:20:24.934Z,21.67
2022-08-03T22:22:57.269Z,21.67
2022-08-03T22:25:30.573Z,21.65
2022-08-03T22:28:04.301Z,21.64
2022-08-03T22:30:35.685Z,21.61
2022-08-03T22:33:11.043Z,21.60
2022-08-03T22:35:47.640Z,21.58
2022-08-03T22:38:19.524Z,21.59
2022-08-03T22:40:51.056Z,21.56
2022-08-03T22:43:24.509Z,21.54
2022-08-03T22:46:10.539Z,21.56
2022-08-03T22:48:42.618Z,21.55
2022-08-03T22:51:12.173Z,21.55
2022-08-03T22:53:42.570Z,21.54
2022-08-03T22:56:12.624Z,21.52
2022-08-03T22:58:41.922Z,21.51
2022-08-03T23:01:14.523Z,21.49
2022-08-03T23:03:59.712Z,21.47
2022-08-03T23:06:34.317Z,21.45
2022-08-03T23:09:06.860Z,21.45
2022-08-03T23:11:42.826Z,21.43
2022-08-03T23:14:16.732Z,21.39
2022-08-03T23:16:48.526Z,21.38
2022-08-03T23:19:25.513Z,21.38
2022-08-03T23:22:02.878Z,21.39
2022-08-03T23:24:37.012Z,21.38
2022-08-03T23:27:07.473Z,21.36
2022-08-03T23:29:38.296Z,21.32
2022-08-03T23:32:09.934Z,21.32
2022-08-03T23:34:58.780Z,21.31
2022-08-03T23:37:28.433Z,21.30
2022-08-03T23:39:58.658Z,21.29
2022-08-03T23:42:28.511Z,21.28
2022-08-03T23:44:59.474Z,21.25
2022-08-03T23:47:46.323Z,21.27
2022-08-03T23:50:18.578Z,21.26
